Los Saenz, Texas
Current Conditions -  °F | °C
As of 6:35 AM on Monday 22 Dec 2014 (Local Time) from KAPY Reporting Station
Overcast Overcast  
Wind Chill: 58°   Ceiling: 400
Heat Index: 58°   Visibility: 10mi
Dew Point: 58°   Wind: 3mph
Humidity: 99%   Direction: 150°SSE
Pressure: 29.77"   Gusts: NA
Location:  26.5818°N, 98.985°W
Report Text: KAPY 221235Z AUTO 15003KT 10SM OVC004 14/14 A2977 RMK AO2 T01450144
Loading
Personal Weather Stations






























Interactive Weather Map New forecast layout! Learn more

10-Day Weather Forecast

Advertisements
Track Severe Weather on mobile